Terminal Aerodrome Forecast
Issued by NWS

Home | Current Version | Previous Version | Text Only | Print | Product List | Glossary On
Versions: 1 2 3 4 5 6 7 8 9 10 11 12 13 14 15
000
FTUS42 KMLB 272338
TAFTIX
TAF
KTIX 272338Z 2800/2824 36015KT 5SM BR OVC009
     FM280500 02011KT P6SM VCSH BKN008 OVC015
     FM281500 06014G22KT P6SM VCSH OVC015
      AMD NOT SKED 2802/2812=

USA.gov is the U.S. government's official web portal to all federal, state and local government web resources and services.